Time;durP1;ratioP1;P1;durP2;ratioP2;P2;SDS_P1;SDS_P2;PMS_P1;PMS_P2;Temp;Humidity;BMP_temperature;BMP_pressure;BME280_temperature;BME280_humidity;BME280_pressure;Samples;Min_cycle;Max_cycle;Signal;HPM_P1;HPM_P2
2022/06/16 00:02:17;;;;;;;8.33;1.67;;;16.50;53.40;;;;;;5055852;28;20191;-88
2022/06/16 00:04:46;;;;;;;3.03;1.27;;;16.60;52.40;;;;;;5040779;28;20181;-84
2022/06/16 00:07:15;;;;;;;2.00;1.30;;;16.60;51.10;;;;;;5037937;28;20181;-78
2022/06/16 00:09:43;;;;;;;1.50;1.00;;;16.60;51.20;;;;;;5059293;28;20648;-79
2022/06/16 00:12:10;;;;;;;2.17;1.40;;;16.80;51.80;;;;;;5061179;28;20277;-84
2022/06/16 00:14:38;;;;;;;2.03;1.17;;;16.80;51.80;;;;;;5042884;28;20214;-80
2022/06/16 00:17:06;;;;;;;3.23;1.60;;;16.90;50.80;;;;;;5033681;28;20271;-80
2022/06/16 00:19:33;;;;;;;2.30;1.10;;;17.00;50.90;;;;;;5044544;28;20177;-79
2022/06/16 00:22:01;;;;;;;3.27;1.20;;;17.00;50.80;;;;;;5033923;28;20233;-82
2022/06/16 00:24:28;;;;;;;2.40;1.50;;;17.20;50.60;;;;;;5054678;28;20713;-82
2022/06/16 00:26:57;;;;;;;3.63;1.27;;;17.30;50.50;;;;;;5046312;28;20238;-82
2022/06/16 00:29:25;;;;;;;2.07;1.10;;;17.30;49.70;;;;;;5035337;28;20240;-78
2022/06/16 00:31:53;;;;;;;1.30;1.00;;;17.40;49.50;;;;;;5035312;28;20178;-79
2022/06/16 00:34:20;;;;;;;6.77;1.70;;;17.40;49.40;;;;;;5034692;28;20186;-75
2022/06/16 00:36:48;;;;;;;3.27;1.00;;;17.60;48.90;;;;;;5038475;28;20538;-78
2022/06/16 00:39:15;;;;;;;2.63;1.10;;;17.70;48.80;;;;;;5036503;28;20278;-77
2022/06/16 00:41:43;;;;;;;4.63;1.40;;;17.80;48.80;;;;;;5036893;28;20184;-75
2022/06/16 00:44:16;;;;;;;3.90;1.10;;;17.80;48.30;;;;;;5044221;28;20180;-81
2022/06/16 00:46:43;;;;;;;4.23;1.30;;;18.00;48.40;;;;;;5038958;28;20611;-77
2022/06/16 00:49:13;;;;;;;3.60;1.20;;;18.30;47.70;;;;;;5036520;28;20267;-73
2022/06/16 00:51:57;;;;;;;1.83;1.30;;;18.30;47.20;;;;;;5047958;28;20223;-75
2022/06/16 00:54:54;;;;;;;4.30;1.13;;;18.20;47.40;;;;;;5034327;28;20177;-78
2022/06/16 00:57:28;;;;;;;4.37;1.23;;;18.30;47.90;;;;;;5047778;28;20186;-75
2022/06/16 00:59:58;;;;;;;2.47;1.10;;;18.30;47.50;;;;;;5034874;28;20278;-75
2022/06/16 01:02:29;;;;;;;3.17;0.93;;;18.40;47.80;;;;;;5040473;28;20173;-77
2022/06/16 01:04:57;;;;;;;2.63;1.70;;;18.30;47.60;;;;;;5043106;28;20182;-74
2022/06/16 01:07:29;;;;;;;1.27;0.93;;;18.40;48.00;;;;;;5050586;28;20200;-75
2022/06/16 01:09:58;;;;;;;2.30;1.10;;;18.50;46.70;;;;;;5042623;28;20194;-75
2022/06/16 01:15:37;;;;;;;3.10;1.03;;;18.80;45.90;;;;;;5044099;28;20623;-75
2022/06/16 01:18:25;;;;;;;8.53;1.30;;;18.90;45.60;;;;;;5043555;28;20668;-74
2022/06/16 01:21:35;;;;;;;2.87;1.00;;;19.00;44.70;;;;;;5045970;28;20187;-79
2022/06/16 01:24:32;;;;;;;6.77;1.10;;;19.10;44.70;;;;;;5044485;28;20195;-81
2022/06/16 01:27:23;;;;;;;4.13;1.00;;;19.30;43.80;;;;;;5053619;28;20731;-79
2022/06/16 01:30:09;;;;;;;3.80;1.27;;;19.20;43.60;;;;;;5047587;28;20614;-87
2022/06/16 01:32:36;;;;;;;0.93;0.70;;;19.30;43.20;;;;;;5052760;28;20212;-87
2022/06/16 01:35:26;;;;;;;1.57;0.80;;;19.60;42.80;;;;;;5058027;28;20285;-82
2022/06/16 01:38:07;;;;;;;1.80;0.80;;;19.70;42.40;;;;;;5046336;28;20176;-83
2022/06/16 01:41:09;;;;;;;1.67;0.90;;;19.70;42.80;;;;;;5044865;28;20323;-72
2022/06/16 01:43:47;;;;;;;1.30;0.60;;;19.90;42.00;;;;;;5037894;28;20198;-81
2022/06/16 01:46:20;;;;;;;2.80;0.70;;;20.00;42.10;;;;;;5045547;28;20247;-89
2022/06/16 01:48:54;;;;;;;2.53;0.70;;;20.10;41.90;;;;;;5051405;28;20184;-80
2022/06/16 01:51:33;;;;;;;1.17;0.80;;;20.30;41.60;;;;;;5043818;28;20184;-78
2022/06/16 01:54:15;;;;;;;0.70;0.67;;;20.30;41.60;;;;;;5049689;28;20226;-79
2022/06/16 01:56:52;;;;;;;2.07;0.70;;;20.10;41.10;;;;;;5047351;28;20542;-78
2022/06/16 01:59:24;;;;;;;0.63;0.50;;;20.20;40.50;;;;;;5048382;28;20180;-82
2022/06/16 02:01:57;;;;;;;1.70;0.70;;;20.30;40.40;;;;;;5046515;28;20783;-78
2022/06/16 02:04:33;;;;;;;1.37;0.70;;;20.30;40.30;;;;;;5049242;28;20215;-82
2022/06/16 02:07:09;;;;;;;1.13;0.60;;;20.50;40.00;;;;;;5041479;28;20650;-80
2022/06/16 02:09:43;;;;;;;1.03;0.70;;;20.50;39.50;;;;;;5037825;28;20234;-83
2022/06/16 02:12:58;;;;;;;1.40;0.60;;;20.80;39.30;;;;;;5052593;28;20186;-82
2022/06/16 02:15:16;;;;;;;1.77;0.80;;;21.00;39.20;;;;;;5042128;28;20299;-79
2022/06/16 02:17:43;;;;;;;1.17;0.70;;;20.80;39.00;;;;;;5051434;28;20172;-83
2022/06/16 02:20:11;;;;;;;1.67;0.63;;;20.90;38.70;;;;;;5041871;28;20187;-83
2022/06/16 02:22:39;;;;;;;1.33;0.73;;;20.80;39.20;;;;;;5040172;28;20230;-83
2022/06/16 02:25:07;;;;;;;1.00;0.70;;;20.90;39.00;;;;;;5040899;28;20191;-78
2022/06/16 02:27:35;;;;;;;1.33;0.77;;;20.90;39.30;;;;;;5049522;28;20666;-79
2022/06/16 02:30:03;;;;;;;3.17;0.77;;;21.00;39.20;;;;;;5049530;28;20219;-75
2022/06/16 02:33:04;;;;;;;2.20;1.00;;;21.00;39.20;;;;;;5042501;28;20245;-78
2022/06/16 02:35:52;;;;;;;5.97;0.90;;;20.90;39.30;;;;;;5039980;28;20231;-82
2022/06/16 02:38:49;;;;;;;0.60;0.53;;;21.00;38.80;;;;;;5062191;28;20192;-74
2022/06/16 02:41:49;;;;;;;1.27;0.90;;;21.10;38.60;;;;;;5049664;28;20180;-80
2022/06/16 02:44:45;;;;;;;2.33;0.87;;;21.00;39.90;;;;;;5049532;28;20541;-83
2022/06/16 02:47:48;;;;;;;1.43;0.80;;;20.80;39.00;;;;;;5049790;28;20180;-76
2022/06/16 02:50:46;;;;;;;1.57;0.90;;;20.90;39.70;;;;;;5045023;28;20223;-83
2022/06/16 02:56:26;;;;;;;4.80;1.13;;;20.70;40.50;;;;;;5056573;28;20200;-79
2022/06/16 02:58:57;;;;;;;1.93;0.70;;;20.50;40.60;;;;;;5054554;28;20172;-81
2022/06/16 03:01:26;;;;;;;1.03;0.80;;;20.20;40.70;;;;;;5050531;28;20184;-79
2022/06/16 03:04:06;;;;;;;2.67;0.73;;;19.80;41.20;;;;;;5050166;28;20179;-79
2022/06/16 03:06:33;;;;;;;3.57;1.13;;;19.80;42.10;;;;;;5051374;28;20634;-78
2022/06/16 03:09:02;;;;;;;3.67;0.90;;;20.00;42.70;;;;;;5051242;28;20528;-87
2022/06/16 03:11:29;;;;;;;1.93;0.70;;;20.30;41.60;;;;;;5050093;28;20266;-83
2022/06/16 03:13:57;;;;;;;1.27;0.63;;;20.40;41.60;;;;;;5045011;28;20236;-77
2022/06/16 03:16:24;;;;;;;2.87;0.83;;;20.70;40.40;;;;;;5064674;28;20633;-79
2022/06/16 03:18:52;;;;;;;0.70;0.60;;;20.90;40.60;;;;;;5051650;28;20251;-78
2022/06/16 03:21:20;;;;;;;5.40;1.87;;;20.90;40.60;;;;;;5050896;28;20180;-80
2022/06/16 03:23:47;;;;;;;4.23;1.20;;;20.90;40.60;;;;;;5051687;28;20247;-81
2022/06/16 03:26:14;;;;;;;2.93;0.83;;;20.90;40.20;;;;;;5050552;28;20285;-79
2022/06/16 03:28:43;;;;;;;7.93;1.13;;;21.10;40.70;;;;;;5051366;28;20290;-79
2022/06/16 03:31:10;;;;;;;8.17;1.80;;;21.60;39.90;;;;;;5046670;28;20219;-80
2022/06/16 03:33:38;;;;;;;4.13;1.37;;;21.80;39.10;;;;;;5046253;28;20195;-79
2022/06/16 03:36:05;;;;;;;2.07;0.90;;;21.80;38.80;;;;;;5053455;28;20230;-86
2022/06/16 03:38:42;;;;;;;5.00;1.43;;;22.10;38.40;;;;;;5051275;28;20259;-84
2022/06/16 03:41:11;;;;;;;4.93;1.73;;;22.60;38.10;;;;;;5055237;28;20180;-84
2022/06/16 03:43:39;;;;;;;6.00;1.33;;;22.80;37.80;;;;;;5044804;28;20240;-82
2022/06/16 03:46:07;;;;;;;5.73;1.00;;;23.00;37.20;;;;;;5049306;28;20599;-78
2022/06/16 03:48:34;;;;;;;2.47;1.00;;;23.00;37.10;;;;;;5048837;28;20191;-87
2022/06/16 03:51:04;;;;;;;3.70;0.70;;;23.00;36.70;;;;;;5039892;28;20211;-83
2022/06/16 03:53:31;;;;;;;2.23;1.33;;;22.60;37.40;;;;;;5048364;28;20642;-81
2022/06/16 03:55:59;;;;;;;3.57;0.90;;;22.40;38.20;;;;;;5047589;28;20310;-82
2022/06/16 03:58:27;;;;;;;1.87;0.63;;;22.60;38.10;;;;;;5049077;28;20199;-83
2022/06/16 04:00:54;;;;;;;6.57;0.80;;;23.00;37.60;;;;;;5047719;28;20188;-79
2022/06/16 04:06:07;;;;;;;3.13;0.83;;;23.20;36.70;;;;;;5046310;28;20226;-79
2022/06/16 04:08:34;;;;;;;2.03;0.77;;;23.40;36.50;;;;;;5049925;28;20186;-88
2022/06/16 04:11:26;;;;;;;3.80;0.83;;;23.10;36.90;;;;;;5045636;28;20176;-79
2022/06/16 04:13:49;;;;;;;4.67;0.80;;;23.20;36.60;;;;;;5044435;28;20673;-79
2022/06/16 04:16:17;;;;;;;1.87;1.00;;;23.40;36.90;;;;;;5060262;28;20213;-76
2022/06/16 04:18:45;;;;;;;1.00;0.70;;;24.00;35.30;;;;;;5049318;28;20176;-79
2022/06/16 04:21:12;;;;;;;2.53;0.90;;;23.40;36.30;;;;;;5044059;28;20267;-82
2022/06/16 04:23:40;;;;;;;2.27;0.80;;;22.70;38.10;;;;;;5045613;28;20186;-81
2022/06/16 04:26:08;;;;;;;1.80;0.80;;;22.20;38.50;;;;;;5051881;28;20244;-80
2022/06/16 04:28:36;;;;;;;1.90;0.90;;;22.30;39.50;;;;;;5049710;28;20658;-80
2022/06/16 04:31:03;;;;;;;1.70;0.97;;;22.30;39.40;;;;;;5048398;28;20316;-83
2022/06/16 04:33:31;;;;;;;1.63;0.90;;;21.80;39.90;;;;;;5055683;28;20622;-83
2022/06/16 04:35:58;;;;;;;1.90;1.07;;;21.70;40.30;;;;;;5054006;28;20215;-83
2022/06/16 04:38:28;;;;;;;3.47;1.10;;;21.70;40.80;;;;;;5052679;28;20595;-84
2022/06/16 04:40:58;;;;;;;3.80;1.10;;;21.80;40.90;;;;;;5051497;28;20196;-83
2022/06/16 04:43:26;;;;;;;4.47;0.90;;;22.10;39.30;;;;;;5053326;28;20273;-85
2022/06/16 04:45:55;;;;;;;4.13;1.00;;;22.80;38.80;;;;;;5052857;28;20669;-84
2022/06/16 04:48:22;;;;;;;3.67;1.20;;;23.80;36.50;;;;;;5050840;28;20591;-84
2022/06/16 04:50:50;;;;;;;2.30;1.30;;;23.70;36.80;;;;;;5049721;28;20185;-90
2022/06/16 04:53:17;;;;;;;0.90;0.70;;;24.40;35.20;;;;;;5052563;28;20690;-84
2022/06/16 04:55:51;;;;;;;2.70;1.00;;;24.60;34.60;;;;;;5052601;28;20272;-85
2022/06/16 04:58:19;;;;;;;3.10;0.90;;;25.30;33.90;;;;;;5052600;28;21317;-89
2022/06/16 05:00:48;;;;;;;6.57;0.80;;;25.60;33.40;;;;;;5051049;28;20422;-87
2022/06/16 05:03:17;;;;;;;2.03;1.00;;;25.90;32.30;;;;;;5052625;28;20188;-85
2022/06/16 05:05:49;;;;;;;2.63;0.97;;;25.30;33.90;;;;;;5053760;28;20195;-82
2022/06/16 05:08:18;;;;;;;1.23;0.93;;;25.40;33.30;;;;;;5044064;28;20681;-81
2022/06/16 05:10:50;;;;;;;1.57;0.80;;;25.80;32.80;;;;;;5046619;28;20186;-87
2022/06/16 05:13:19;;;;;;;1.63;0.70;;;24.90;33.70;;;;;;5052010;28;20176;-83
2022/06/16 05:15:46;;;;;;;4.27;1.17;;;23.70;35.90;;;;;;5044462;28;20395;-89
2022/06/16 05:18:14;;;;;;;1.50;0.70;;;22.80;37.10;;;;;;5046008;28;20216;-80
2022/06/16 05:20:42;;;;;;;1.20;0.80;;;21.90;39.10;;;;;;5034667;28;20266;-85
2022/06/16 05:23:11;;;;;;;12.17;1.20;;;21.50;40.50;;;;;;5047366;28;20176;-83
2022/06/16 05:25:40;;;;;;;1.97;0.80;;;21.30;41.10;;;;;;5047711;28;20273;-79
2022/06/16 05:28:08;;;;;;;3.47;1.13;;;21.10;41.50;;;;;;5036728;28;20222;-80
2022/06/16 05:30:36;;;;;;;1.57;0.87;;;21.00;42.20;;;;;;5050992;28;20211;-81
2022/06/16 05:33:04;;;;;;;1.40;0.80;;;20.90;42.00;;;;;;5041140;28;20198;-85
2022/06/16 05:35:31;;;;;;;1.43;0.93;;;20.80;42.10;;;;;;5038771;28;20195;-86
2022/06/16 05:37:59;;;;;;;2.33;0.70;;;20.60;42.60;;;;;;5042942;28;20251;-86
2022/06/16 05:40:27;;;;;;;4.30;0.80;;;20.50;43.20;;;;;;5038113;28;20187;-86
2022/06/16 05:42:54;;;;;;;2.13;1.27;;;20.30;43.20;;;;;;5035055;28;20175;-81
2022/06/16 05:45:22;;;;;;;2.57;0.70;;;20.30;43.30;;;;;;5034386;28;20655;-81
2022/06/16 05:47:49;;;;;;;1.63;0.70;;;20.10;43.60;;;;;;5035410;28;20583;-81
2022/06/16 05:50:18;;;;;;;1.17;0.83;;;20.10;43.70;;;;;;5033761;28;20187;-86
2022/06/16 05:52:46;;;;;;;0.70;0.60;;;20.00;44.00;;;;;;5045082;28;20179;-80
2022/06/16 05:55:15;;;;;;;1.73;0.60;;;19.90;43.50;;;;;;5057232;28;20200;-81
2022/06/16 05:57:42;;;;;;;6.93;1.27;;;19.90;43.80;;;;;;5050637;28;20172;-79
2022/06/16 06:00:11;;;;;;;3.30;1.10;;;19.90;44.20;;;;;;5057641;28;20191;-80
2022/06/16 06:02:39;;;;;;;2.30;0.80;;;19.80;44.40;;;;;;5039976;28;20184;-79
2022/06/16 06:05:07;;;;;;;1.20;0.80;;;19.80;44.40;;;;;;5033798;28;20191;-81
2022/06/16 06:18:39;;;;;;;2.70;1.47;;;19.40;45.10;;;;;;5052131;28;20183;-81
2022/06/16 06:21:07;;;;;;;3.00;1.60;;;19.30;45.50;;;;;;5049338;28;20211;-81
2022/06/16 06:23:34;;;;;;;2.30;1.53;;;19.30;45.80;;;;;;5052861;28;20187;-82
2022/06/16 06:26:02;;;;;;;1.43;1.10;;;19.20;46.20;;;;;;5050568;28;20247;-82
2022/06/16 06:28:30;;;;;;;2.13;1.30;;;19.20;46.60;;;;;;5051886;28;20597;-83
2022/06/16 06:30:57;;;;;;;1.90;1.20;;;19.00;47.30;;;;;;5048778;28;20180;-81
2022/06/16 06:33:25;;;;;;;4.17;1.10;;;19.00;47.80;;;;;;5042046;28;20191;-80
2022/06/16 06:35:54;;;;;;;2.87;1.30;;;19.00;48.40;;;;;;5050088;28;20646;-82
2022/06/16 06:38:22;;;;;;;2.67;1.30;;;18.90;48.90;;;;;;5044313;28;20215;-80
2022/06/16 06:40:49;;;;;;;2.40;1.20;;;18.80;49.20;;;;;;5051907;28;20281;-80
2022/06/16 06:43:17;;;;;;;2.50;1.40;;;18.80;49.40;;;;;;5048102;28;20179;-83
2022/06/16 06:45:44;;;;;;;2.43;1.23;;;18.80;49.60;;;;;;5051156;28;20274;-81
2022/06/16 06:48:11;;;;;;;1.30;1.07;;;18.70;49.80;;;;;;5050127;28;20228;-78
2022/06/16 06:50:40;;;;;;;3.80;1.30;;;18.60;50.30;;;;;;5046486;28;20191;-80
2022/06/16 06:53:09;;;;;;;5.10;1.23;;;18.50;50.50;;;;;;5041864;28;20176;-82
2022/06/16 06:55:40;;;;;;;4.10;0.90;;;18.30;50.80;;;;;;5048721;28;20218;-81
2022/06/16 06:58:09;;;;;;;0.87;0.80;;;18.30;50.70;;;;;;5043494;28;20237;-80
2022/06/16 07:00:36;;;;;;;1.33;1.23;;;18.20;50.70;;;;;;5044593;28;20208;-80
2022/06/16 07:03:05;;;;;;;1.70;0.90;;;18.10;50.60;;;;;;5061050;28;20199;-86
2022/06/16 07:05:32;;;;;;;2.73;0.93;;;18.00;50.60;;;;;;5051900;28;20187;-84
2022/06/16 07:07:59;;;;;;;1.20;0.90;;;18.00;51.00;;;;;;5056876;28;20654;-78
2022/06/16 07:10:27;;;;;;;3.37;1.00;;;17.90;51.30;;;;;;5050699;28;20187;-79
2022/06/16 07:12:55;;;;;;;1.00;0.80;;;17.80;51.40;;;;;;5049450;28;20241;-79
2022/06/16 07:15:22;;;;;;;1.43;0.93;;;17.70;52.00;;;;;;5046243;28;20214;-81
2022/06/16 07:17:50;;;;;;;4.00;0.90;;;17.70;52.20;;;;;;5049490;28;20558;-78
2022/06/16 07:20:18;;;;;;;2.83;1.00;;;17.60;52.40;;;;;;5052196;28;20195;-79
2022/06/16 07:22:46;;;;;;;2.67;1.43;;;17.50;52.70;;;;;;5049335;28;20176;-78
2022/06/16 07:25:15;;;;;;;1.70;0.70;;;17.40;53.30;;;;;;5051496;28;20372;-81
2022/06/16 07:27:43;;;;;;;2.63;1.47;;;17.30;53.50;;;;;;5063742;28;20179;-82
2022/06/16 07:30:17;;;;;;;5.00;1.13;;;17.30;53.80;;;;;;5058146;28;20187;-81
2022/06/16 07:32:46;;;;;;;1.70;1.10;;;17.20;54.30;;;;;;5070154;28;20675;-81
2022/06/16 07:35:16;;;;;;;2.40;1.00;;;17.10;54.30;;;;;;5053957;28;20676;-82
2022/06/16 07:37:44;;;;;;;3.20;1.20;;;17.00;54.50;;;;;;5037851;28;20596;-80
2022/06/16 07:40:12;;;;;;;2.20;1.10;;;17.00;54.70;;;;;;5036254;28;20194;-80
2022/06/16 07:42:40;;;;;;;1.30;1.20;;;17.00;54.30;;;;;;5050285;28;20500;-80
2022/06/16 07:45:09;;;;;;;1.83;1.13;;;17.00;54.20;;;;;;5046512;28;20186;-84
2022/06/16 07:47:36;;;;;;;2.93;1.50;;;16.90;54.30;;;;;;5050384;28;20221;-80
2022/06/16 07:50:08;;;;;;;2.23;1.43;;;17.00;53.90;;;;;;5033467;28;20174;-77
2022/06/16 07:52:36;;;;;;;2.10;1.20;;;16.90;54.40;;;;;;5046572;28;20552;-80
2022/06/16 07:55:05;;;;;;;2.60;1.20;;;16.80;54.40;;;;;;5048763;28;20270;-87
2022/06/16 07:57:34;;;;;;;1.67;1.10;;;16.80;54.00;;;;;;5039943;28;20204;-79
2022/06/16 08:00:05;;;;;;;1.23;1.13;;;16.80;54.00;;;;;;5051911;28;20192;-80
2022/06/16 08:02:32;;;;;;;1.50;1.20;;;16.80;54.50;;;;;;5056850;28;20506;-79
2022/06/16 08:04:59;;;;;;;4.00;1.27;;;16.70;54.50;;;;;;5048538;28;20191;-80
2022/06/16 08:07:27;;;;;;;3.30;1.20;;;16.70;54.80;;;;;;5049843;28;20288;-80
2022/06/16 08:09:55;;;;;;;3.53;1.30;;;16.70;54.80;;;;;;5056709;28;20235;-77
2022/06/16 08:12:24;;;;;;;3.70;1.57;;;16.50;55.00;;;;;;5065465;28;20189;-79
2022/06/16 08:14:51;;;;;;;4.73;1.30;;;16.50;55.20;;;;;;5050205;28;20732;-79
2022/06/16 08:17:25;;;;;;;1.87;1.40;;;16.40;55.30;;;;;;5043603;28;20187;-78
2022/06/16 08:19:54;;;;;;;4.53;1.50;;;16.40;55.50;;;;;;5039582;28;20534;-80
2022/06/16 08:22:25;;;;;;;2.60;1.40;;;16.30;55.90;;;;;;5047779;28;20192;-80
2022/06/16 08:24:52;;;;;;;1.97;1.30;;;16.30;55.80;;;;;;5041476;28;20172;-84
2022/06/16 08:27:24;;;;;;;2.63;1.23;;;16.20;56.00;;;;;;5048389;28;20172;-78
2022/06/16 08:29:52;;;;;;;3.33;1.97;;;16.20;55.80;;;;;;5035493;28;20192;-78
2022/06/16 08:32:21;;;;;;;4.50;1.63;;;16.20;56.00;;;;;;5043805;28;20188;-75
2022/06/16 08:34:49;;;;;;;5.57;1.80;;;16.10;56.10;;;;;;5035616;28;20555;-78
2022/06/16 08:37:19;;;;;;;2.73;1.97;;;16.10;56.00;;;;;;5035110;28;20185;-81
2022/06/16 08:39:46;;;;;;;4.37;1.93;;;16.10;56.10;;;;;;5035426;28;20177;-78
2022/06/16 08:42:53;;;;;;;3.23;1.50;;;16.00;56.40;;;;;;5035338;28;20235;-77
2022/06/16 08:45:23;;;;;;;1.97;1.53;;;16.00;56.30;;;;;;5030236;28;20636;-82
2022/06/16 08:48:02;;;;;;;4.87;1.50;;;15.90;56.60;;;;;;5043691;28;20252;-80
2022/06/16 08:50:50;;;;;;;2.23;1.60;;;15.80;56.60;;;;;;5044548;28;20258;-78
2022/06/16 08:53:32;;;;;;;2.47;1.70;;;15.80;57.10;;;;;;5040040;28;20172;-79
2022/06/16 08:56:12;;;;;;;1.43;1.33;;;15.70;57.40;;;;;;5050696;28;20667;-77
2022/06/16 08:59:21;;;;;;;2.53;1.60;;;15.70;57.20;;;;;;5033019;28;20169;-86
2022/06/16 09:01:57;;;;;;;3.37;2.57;;;15.70;57.10;;;;;;5035149;28;20581;-79
2022/06/16 09:04:31;;;;;;;6.73;3.10;;;15.60;57.70;;;;;;5050292;28;20540;-77
2022/06/16 09:07:20;;;;;;;5.47;2.60;;;15.60;57.70;;;;;;5046551;28;20204;-78
2022/06/16 09:10:18;;;;;;;4.17;2.30;;;15.50;58.20;;;;;;5049215;28;20239;-80
2022/06/16 09:12:52;;;;;;;8.63;2.67;;;15.40;58.70;;;;;;5034266;28;20610;-79
2022/06/16 09:15:54;;;;;;;2.10;1.60;;;15.30;58.80;;;;;;5039361;28;20208;-75
2022/06/16 09:18:42;;;;;;;1.93;1.47;;;15.20;59.20;;;;;;5027695;28;20269;-79
2022/06/16 09:21:33;;;;;;;5.77;1.60;;;15.20;59.70;;;;;;5049408;28;20169;-76
2022/06/16 09:24:10;;;;;;;4.07;2.83;;;15.10;59.80;;;;;;5074932;28;20213;-80
2022/06/16 09:26:44;;;;;;;5.10;3.03;;;15.10;59.90;;;;;;5042663;28;20362;-82
2022/06/16 09:29:21;;;;;;;5.93;2.87;;;15.00;59.90;;;;;;5043496;28;20254;-78
2022/06/16 09:32:10;;;;;;;9.73;2.13;;;15.10;59.90;;;;;;5041745;28;20176;-78
2022/06/16 09:34:53;;;;;;;3.93;2.13;;;15.00;60.10;;;;;;5048504;28;20173;-79
2022/06/16 09:37:46;;;;;;;5.47;1.93;;;15.00;60.50;;;;;;5033449;28;20180;-78
2022/06/16 09:40:22;;;;;;;2.30;1.90;;;14.90;60.50;;;;;;5040901;28;20181;-78
2022/06/16 09:43:10;;;;;;;2.73;1.70;;;14.80;61.00;;;;;;5033748;28;20246;-86
2022/06/16 09:45:50;;;;;;;5.10;1.70;;;14.80;61.00;;;;;;5045703;28;20219;-78
2022/06/16 09:48:23;;;;;;;4.50;1.63;;;14.80;61.10;;;;;;5043013;28;20176;-77
2022/06/16 09:51:12;;;;;;;3.80;1.90;;;14.80;61.00;;;;;;5034405;28;20241;-77
2022/06/16 09:53:40;;;;;;;2.87;1.90;;;14.70;61.10;;;;;;5042722;28;20173;-76
2022/06/16 09:56:33;;;;;;;3.83;2.70;;;14.80;60.90;;;;;;5048694;28;20212;-77
2022/06/16 09:59:08;;;;;;;5.23;2.67;;;14.70;61.00;;;;;;5049050;28;20174;-82
2022/06/16 10:01:51;;;;;;;3.63;2.20;;;14.80;61.20;;;;;;5058301;28;20610;-83
2022/06/16 10:04:18;;;;;;;2.37;1.57;;;14.70;61.20;;;;;;5033667;28;20180;-75
2022/06/16 10:07:21;;;;;;;5.77;1.87;;;14.70;61.30;;;;;;5033544;28;20168;-78
2022/06/16 10:10:22;;;;;;;1.63;1.47;;;14.60;61.70;;;;;;5028424;28;20185;-77
2022/06/16 10:12:54;;;;;;;3.67;1.80;;;14.50;61.90;;;;;;5040802;28;20181;-76
2022/06/16 10:15:56;;;;;;;2.80;1.93;;;14.40;62.30;;;;;;5033509;28;20195;-77
2022/06/16 10:18:24;;;;;;;3.77;2.57;;;14.40;62.90;;;;;;5028978;28;20254;-81
2022/06/16 10:20:52;;;;;;;4.17;2.10;;;14.30;63.30;;;;;;5035109;28;20176;-78
2022/06/16 10:23:28;;;;;;;4.27;2.17;;;14.20;63.80;;;;;;5051608;28;20180;-77
2022/06/16 10:25:59;;;;;;;4.83;2.17;;;14.20;64.10;;;;;;5060864;28;20750;-79
2022/06/16 10:28:46;;;;;;;4.13;2.30;;;14.20;64.20;;;;;;5055472;28;20517;-75
2022/06/16 10:31:36;;;;;;;4.27;2.10;;;14.10;64.40;;;;;;5037639;28;20598;-78
2022/06/16 10:34:05;;;;;;;4.13;1.90;;;14.10;64.60;;;;;;5062992;28;20210;-79
2022/06/16 10:36:33;;;;;;;2.27;2.00;;;14.00;64.70;;;;;;5035428;28;20533;-84
2022/06/16 10:39:23;;;;;;;4.37;2.20;;;13.90;64.70;;;;;;5050530;28;20179;-78
2022/06/16 10:42:01;;;;;;;3.73;2.07;;;14.00;65.10;;;;;;5036143;28;20187;-77
2022/06/16 10:44:31;;;;;;;4.77;2.17;;;13.90;65.20;;;;;;5052807;28;20641;-79
2022/06/16 10:47:06;;;;;;;3.20;2.33;;;13.90;65.20;;;;;;5043947;28;20179;-75
2022/06/16 10:49:41;;;;;;;3.53;2.33;;;13.80;65.80;;;;;;5045171;28;20219;-78
2022/06/16 10:52:14;;;;;;;2.40;1.90;;;13.80;65.60;;;;;;5038578;28;20187;-75
2022/06/16 10:55:00;;;;;;;3.23;2.53;;;13.70;66.00;;;;;;5056391;28;20675;-76
2022/06/16 10:57:31;;;;;;;3.30;2.43;;;13.70;66.00;;;;;;5032885;28;20172;-78
2022/06/16 11:00:10;;;;;;;4.63;2.20;;;13.70;66.10;;;;;;5032571;28;20324;-79
2022/06/16 11:02:52;;;;;;;3.00;2.20;;;13.70;66.20;;;;;;5040668;28;20191;-77
2022/06/16 11:05:19;;;;;;;3.90;2.50;;;13.60;66.00;;;;;;5040390;28;20638;-76
2022/06/16 11:07:47;;;;;;;4.83;2.70;;;13.70;66.20;;;;;;5040613;28;20649;-76
2022/06/16 11:10:34;;;;;;;5.00;2.73;;;13.60;66.20;;;;;;5049739;28;20524;-75
2022/06/16 11:13:02;;;;;;;7.40;2.83;;;13.60;66.50;;;;;;5041432;28;20674;-79
2022/06/16 11:15:35;;;;;;;4.60;2.83;;;13.50;66.60;;;;;;5032612;28;20554;-79
2022/06/16 11:18:07;;;;;;;3.73;2.77;;;13.40;66.80;;;;;;5032555;28;20667;-79
2022/06/16 11:20:41;;;;;;;5.23;2.93;;;13.30;66.90;;;;;;5037168;28;20191;-75
2022/06/16 11:23:33;;;;;;;4.27;2.53;;;13.30;67.40;;;;;;5038582;28;20195;-75
2022/06/16 11:26:18;;;;;;;4.17;2.37;;;13.20;67.50;;;;;;5048658;28;20374;-78
2022/06/16 11:28:49;;;;;;;5.37;2.77;;;13.10;68.30;;;;;;5032202;28;20179;-75
2022/06/16 11:31:34;;;;;;;3.67;2.40;;;13.10;68.50;;;;;;5036878;28;20229;-76
2022/06/16 11:34:22;;;;;;;9.73;3.83;;;13.10;68.90;;;;;;5049920;28;20175;-76
2022/06/16 11:37:02;;;;;;;7.57;3.83;;;13.10;69.00;;;;;;5062536;28;20740;-78
2022/06/16 11:39:39;;;;;;;5.17;3.43;;;13.00;69.20;;;;;;5063077;28;20172;-77
2022/06/16 11:42:27;;;;;;;8.03;4.00;;;13.00;69.20;;;;;;5056220;28;20605;-77
2022/06/16 11:45:21;;;;;;;5.23;3.20;;;13.00;69.70;;;;;;5041568;28;20218;-78
2022/06/16 11:47:56;;;;;;;7.10;3.20;;;12.80;70.40;;;;;;5036443;28;20378;-78
2022/06/16 11:50:51;;;;;;;5.57;3.23;;;12.80;70.70;;;;;;5045768;28;20179;-79
2022/06/16 11:53:39;;;;;;;4.13;2.70;;;12.80;70.70;;;;;;5041397;28;20196;-81
2022/06/16 11:56:57;;;;;;;3.67;2.90;;;12.80;70.70;;;;;;5064084;28;20673;-78
2022/06/16 11:59:33;;;;;;;12.87;3.47;;;12.80;70.80;;;;;;5043886;28;20195;-80
2022/06/16 12:02:19;;;;;;;5.30;3.07;;;12.80;70.70;;;;;;5040357;28;20326;-78
2022/06/16 12:05:01;;;;;;;7.63;3.37;;;12.70;70.80;;;;;;5035895;28;20275;-79
2022/06/16 12:07:50;;;;;;;7.10;3.20;;;12.70;70.80;;;;;;5036206;28;20179;-79
2022/06/16 12:10:44;;;;;;;9.63;3.20;;;12.70;70.80;;;;;;5035606;28;20188;-81
2022/06/16 12:13:39;;;;;;;6.70;3.40;;;12.70;70.80;;;;;;5036182;28;20231;-80
2022/06/16 12:16:30;;;;;;;6.47;3.17;;;12.70;70.90;;;;;;5037911;28;20581;-79
2022/06/16 12:19:31;;;;;;;7.50;3.27;;;12.60;71.10;;;;;;5038452;28;20219;-80
2022/06/16 12:22:09;;;;;;;6.03;3.23;;;12.60;71.40;;;;;;5024921;28;20584;-80
2022/06/16 12:24:49;;;;;;;5.60;3.30;;;12.60;71.40;;;;;;5037810;28;20176;-78
2022/06/16 12:27:33;;;;;;;5.10;2.93;;;12.50;71.80;;;;;;5037668;28;20198;-79
2022/06/16 12:30:08;;;;;;;6.90;3.30;;;12.60;71.80;;;;;;5047550;28;20190;-79
2022/06/16 12:32:48;;;;;;;8.40;3.40;;;12.50;72.10;;;;;;5046238;28;20202;-79
2022/06/16 12:35:34;;;;;;;12.07;3.40;;;12.40;72.40;;;;;;5034371;28;20200;-79
2022/06/16 12:38:33;;;;;;;6.03;3.17;;;12.30;72.50;;;;;;5038691;28;20185;-78
2022/06/16 12:41:31;;;;;;;7.93;3.13;;;12.30;72.40;;;;;;5035862;28;20193;-78
2022/06/16 12:44:28;;;;;;;4.43;3.27;;;12.30;72.50;;;;;;5036787;28;20185;-78
2022/06/16 12:47:17;;;;;;;5.07;3.30;;;12.30;72.40;;;;;;5046108;28;20263;-79
2022/06/16 12:49:54;;;;;;;6.40;3.77;;;12.30;72.40;;;;;;5039486;28;20229;-79
2022/06/16 12:52:46;;;;;;;4.40;3.00;;;12.30;72.00;;;;;;5034771;28;20187;-78
2022/06/16 12:55:25;;;;;;;4.93;3.10;;;12.30;71.70;;;;;;5040375;28;20214;-76
2022/06/16 12:58:26;;;;;;;8.23;3.00;;;12.30;71.50;;;;;;5033764;28;20200;-78
2022/06/16 13:01:01;;;;;;;4.97;3.40;;;12.30;71.40;;;;;;5032649;28;20191;-76
2022/06/16 13:03:47;;;;;;;5.93;3.10;;;12.30;71.40;;;;;;5041517;28;20167;-77
2022/06/16 13:06:18;;;;;;;6.10;3.40;;;12.20;71.10;;;;;;5049815;28;20185;-82
2022/06/16 13:08:50;;;;;;;4.83;3.00;;;12.20;71.00;;;;;;5033933;28;20273;-80
2022/06/16 13:11:22;;;;;;;5.10;3.27;;;12.20;70.80;;;;;;5033683;28;20585;-76
2022/06/16 13:13:56;;;;;;;4.37;3.10;;;12.20;70.80;;;;;;5033684;28;20635;-78
2022/06/16 13:16:29;;;;;;;5.60;2.63;;;12.30;70.80;;;;;;5033680;28;20219;-77
2022/06/16 13:19:19;;;;;;;4.33;3.07;;;12.20;71.00;;;;;;5033592;28;20631;-79
2022/06/16 13:22:19;;;;;;;3.90;3.13;;;12.20;70.90;;;;;;5033717;28;20188;-78
2022/06/16 13:27:40;;;;;;;6.50;3.00;;;12.10;71.00;;;;;;5099374;27;20581;-76
2022/06/16 13:30:07;;;;;;;5.30;2.70;;;12.10;71.10;;;;;;5074950;28;20178;-75
2022/06/16 13:32:40;;;;;;;5.83;2.80;;;12.00;71.40;;;;;;5071548;28;20224;-78
2022/06/16 13:35:14;;;;;;;8.07;3.33;;;12.00;71.30;;;;;;5076535;28;20195;-77
2022/06/16 13:37:46;;;;;;;7.77;2.90;;;12.00;71.60;;;;;;5086814;28;20263;-76
2022/06/16 13:40:27;;;;;;;7.00;2.97;;;12.00;71.40;;;;;;5072546;28;20179;-76
2022/06/16 13:42:57;;;;;;;4.43;3.07;;;12.00;71.50;;;;;;5068803;28;20187;-77
2022/06/16 13:45:30;;;;;;;4.07;2.50;;;11.90;71.60;;;;;;5080029;28;20198;-78
2022/06/16 13:48:13;;;;;;;6.63;2.77;;;11.90;71.90;;;;;;5071772;28;20195;-75
2022/06/16 13:50:59;;;;;;;4.70;2.90;;;11.80;71.90;;;;;;5072729;28;20531;-76